Maribyrnong parkrun # 242 - 23/03/2019

PosparkrunnerTimeAge CatAge GradeGender PosClubNoteTotal Runs
1Justin TEMPLAR18:12VM35-3973.90 %M1PB stays at 00:17:0515Strava logo
2John BOHM18:46VM35-3971.14 %M2PB stays at 00:18:1056Member of the parkrun 50 Club
3Melissa VANDEWATER18:54VW40-4480.95 %F1Melbourne Midday MilersFirst Timer!18
4Andrew PINTAR19:03VM35-3969.64 %M3Melbourne Midday MilersNew PB!27
5Karen BARLOW19:11VW40-4479.76 %F2Melbourne Midday MilersPB stays at 00:18:2116
6Callum LOW19:13SM25-2967.22 %M4PB stays at 00:18:4955Member of the parkrun 50 ClubStrava logo
7Riley WALSH19:20JM11-1475.00 %M5PB stays at 00:19:005
8Andrew CAREY19:21SM30-3467.79 %M6Hobson's Bay Running ClubPB stays at 00:17:4874Member of the parkrun 50 ClubStrava logo
9David PARKIN19:30VM45-4972.74 %M7Crosbie CrewPB stays at 00:19:0277Member of the parkrun 50 Club
10Robert WEBB19:42VM35-3967.34 %M8First Timer!1
11Ivan DEAK19:46SM30-3466.36 %M9Melbourne Midday MilersPB stays at 00:18:5230Strava logo
12Nick MARSHALL19:47SM25-2965.21 %M10PB stays at 00:18:1141
13Mason ARTHUR19:48JM15-1769.19 %M11Melbourne Forest RacersFirst Timer!7
14Bruce ARTHUR19:49VM40-4470.98 %M12Melbourne Midday MilersPB stays at 00:17:3834
15Andrew TURNER19:57VM40-4470.51 %M13PB stays at 00:18:0694Member of the parkrun 50 ClubStrava logo
16Unknown
17Brendan DYE20:07VM45-4971.58 %M15PB stays at 00:19:0369Member of the parkrun 50 Club
18Abdulahi HASSAN20:20SM20-2463.69 %M16PB stays at 00:18:5519
19Lionel LIM20:20SM30-3464.51 %M17PB stays at 00:19:484
20Unknown
21Unknown
22Alex RYAN20:56SM25-2961.62 %M20New PB!2
23Joshua MADGWICK20:59VM35-3964.10 %M21PB stays at 00:20:4335Strava logo
24Michael SWADDLE21:06SM25-2961.14 %M22PB stays at 00:19:4272Member of the parkrun 50 ClubStrava logo
25Matthew BOURKE21:07VM40-4466.61 %M23Hobson's Bay Running ClubNew PB!18
26Stuart HILTON21:12VM40-4464.39 %M24PB stays at 00:19:46155Member of the parkrun 100 ClubMember of the parkrun v25 ClubStrava logo
27Craig ROBERTS21:13VM40-4465.83 %M25PB stays at 00:20:3618Strava logo
28Ryan OCONNOR21:15JM11-1468.24 %M26PB stays at 00:19:589
29Harvey MCINNES21:20JM11-1471.72 %M27First Timer!1
30Alfonso GRILLO21:24VM40-4465.26 %M28PB stays at 00:19:2738
31Andrew FLETCHER21:25VM50-5468.87 %M29New PB!49
32Nathan JEWELL-SUTTILL21:42JM11-1465.36 %M30Athletics EssendonPB stays at 00:20:4627Member of the parkrun 10 Club
33Matthew COOPER21:43SM30-3460.09 %M31PB stays at 00:20:3922
34Darryl FRY21:44VM45-4965.26 %M32PB stays at 00:19:5510
35Matthew HEATON-HARRIS21:48SM25-2959.17 %M33First Timer!45Strava logo
36Gavin WILSON21:53VM45-4966.87 %M34PB stays at 00:21:3149
37Ben KELLY21:56SM25-2958.89 %M35PB stays at 00:21:4142
38Adam WALSH22:00VM45-4964.92 %M36PB stays at 00:20:34175Member of the parkrun 100 Club
39David TIMMS22:03VM45-4965.31 %M37PB stays at 00:19:06155Member of the parkrun 100 ClubStrava logo
40Torren ARTHUR22:07JM11-1464.13 %M38Melbourne Forest RacersFirst Timer!6
41Adrian SCIULLI22:15SM25-2957.98 %M39Red and Black RunningPB stays at 00:19:4047Strava logo
42Enzo DE FAZIO22:27VM45-4963.62 %M40PB stays at 00:21:4318
43John DANIELL22:47VM35-3958.23 %M41First Timer!6
44Unknown
45Frank LOMBARDO22:52VM45-4963.99 %M43PB stays at 00:22:1119
46Sophie ARTHUR22:58JW11-1470.90 %F3Melbourne Midday MilersFirst Timer!4
47Michael SMITH23:02VM45-4962.52 %M44PB stays at 00:19:5469Member of the parkrun 50 ClubStrava logo
48Brian DUGGAN23:04VM45-4961.92 %M45PB stays at 00:22:2124
49Lance HOBSON23:07VM50-5464.31 %M46PB stays at 00:22:0958Member of the parkrun 50 Club
50Ashley MCDOWALL23:10VM45-4962.16 %M47Victorian Masters AthleticsPB stays at 00:19:4612
51Scott SUNDERLAND23:14VM40-4458.75 %M48PB stays at 00:22:002Strava logo
52Justin MCLAREN23:20SM20-2455.29 %M49Athletics EssendonPB stays at 00:20:05114Member of the parkrun 100 Club
53Anthony MCKEW23:31VM55-5965.34 %M50Red and Black RunningPB stays at 00:22:0942
54Ben NELSON23:33VM35-3956.33 %M51PB stays at 00:20:5526
55John JORE23:34VM45-4960.18 %M52PB stays at 00:22:4937
56Jillian KELDERS23:37VW55-5976.64 %F4Red and Black RunningPB stays at 00:22:25179Member of the parkrun 100 Club
57Tuncay ISLEK23:46SM30-3454.56 %M53New PB!2
58Isaak KOLIAMPAS23:47JM15-1758.51 %M54PB stays at 00:23:2912Member of the parkrun 10 Club
59Amanda CAREY23:50SW20-2462.10 %F5First Timer!3
60Josh BEAUMONT23:50SM25-2954.13 %M55PB stays at 00:19:4097Member of the parkrun 50 ClubStrava logo
61Shane MALLIA23:53SM25-2954.01 %M56Keilor Running ClubPB stays at 00:17:07136Member of the parkrun 100 ClubStrava logo
62Wayne MCINTOSH23:54SM20-2453.97 %M57First Timer!1
63Adrian SANCHEZ23:55VM35-3956.24 %M58New PB!6
64Sarah WALS23:56VW45-4966.36 %F6PB stays at 00:21:5036
65Michael HANNA23:57VM50-5461.59 %M59PB stays at 00:22:1434
66Scott MCHATTAN23:59VM45-4960.04 %M60PB stays at 00:23:033Strava logo
67Joanne BARRETT24:04VW40-4464.89 %F7PB stays at 00:24:035
68Verdine GOW24:06SM30-3453.67 %M61PB stays at 00:22:5035
69Melanie BURTON24:08VW35-3962.98 %F8Crosbie CrewPB stays at 00:22:3820
70Rodney MACAULAY24:15VM45-4960.34 %M62PB stays at 00:22:3674Member of the parkrun 50 ClubStrava logo
71John MOLONEY24:16VM65-6969.09 %M63PB stays at 00:22:0646
72Chris LAING24:39SM30-3452.94 %M64PB stays at 00:20:28169Member of the parkrun 100 ClubStrava logo
73Owen SNOWDON24:51VM60-6466.26 %M65PB stays at 00:21:14153Member of the parkrun 100 Club
74Nick ASHLEY24:53VM35-3953.32 %M66PB stays at 00:22:4529
75Stuart LINGHAM24:56VM60-6465.44 %M67PB stays at 00:24:5474Member of the parkrun 50 Club
76Dominic STAROPOLI25:00VM40-4455.87 %M68PB stays at 00:22:41107Member of the parkrun 100 ClubStrava logo
77Unknown
78Angela STAFFORD25:06VW40-4460.96 %F9Red and Black RunningPB stays at 00:23:38116Member of the parkrun 100 Club
79Rick STAMBULIC25:14VM50-5458.92 %M70PB stays at 00:25:063
80Martin DONELLY25:20SM25-2950.92 %M71New PB!3
81Noly NOBLE25:25SM25-2950.75 %M72New PB!2
82Unknown
83Andrew MCGRATH25:43VM40-4453.08 %M74PB stays at 00:17:5891Member of the parkrun 50 Club
84Claire MACDONALD26:03VW35-3958.35 %F10PB stays at 00:23:39180Member of the parkrun 100 ClubStrava logo
85Sam MEEHAN26:04JM1062.72 %M75PB stays at 00:24:5025Member of the parkrun 10 Club
86Paul MEEHAN26:14VM45-4954.07 %M76PB stays at 00:19:26115Member of the parkrun 100 Club
87Joel DUNCAN26:30SM30-3449.25 %M77PB stays at 00:24:07102Member of the parkrun 100 ClubStrava logo
88Jonathan CHOONG26:33SM30-3449.40 %M78PB stays at 00:24:4627Strava logo
89Frank FEDELE26:34VM60-6460.35 %M79PB stays at 00:25:5766Member of the parkrun 50 Club
90Milton HARRIS26:37VM55-5957.73 %M80PB stays at 00:22:3876Member of the parkrun 50 Club
91Brandon MONTESIN26:46VM35-3950.25 %M81PB stays at 00:20:4744
92Heath BEVERIDGE26:57JM15-1751.64 %M82Western AthleticsFirst Timer!1
93Sally CHAPMAN26:59VW55-5968.00 %F11PB stays at 00:25:3665Member of the parkrun 50 Club
94Unknown
95Darren BELL27:04VM45-4953.63 %M84PB stays at 00:26:17118Member of the parkrun 100 Club
96Edward ORR27:05JM1060.37 %M85PB stays at 00:26:3418Member of the parkrun 10 Club
97Glen WILLIAMS27:06VM40-4451.91 %M86PB stays at 00:25:1327
98Unknown
99Elizabeth PAINE27:11VW35-3955.18 %F12New PB!99Member of the parkrun 50 Club
100Glen KENNEDY27:13VM50-5455.05 %M88PB stays at 00:24:2216
101Pedro BASTIDAS27:14VM35-3949.02 %M89New PB!13Strava logo
102Rachel WILKINS27:17SW25-2954.25 %F13Orange Runners ClubFirst Timer!38
103Marie O'CONNOR27:19VW45-4958.15 %F14PB stays at 00:26:5046
104Mark QUINN27:19VM50-5455.34 %M90PB stays at 00:26:137
105Pamela WATSON27:21SW30-3454.36 %F15PB stays at 00:25:04109Member of the parkrun 100 ClubStrava logo
106Jonathan ORR27:22VM40-4450.61 %M91New PB!18Strava logo
107Emma MORTON27:23SW30-3454.17 %F16PB stays at 00:21:0364Member of the parkrun 50 Club
108Bradley TAYLOR27:25SM25-2947.11 %M92PB stays at 00:25:113
109James RISTOVICHIS27:28SM30-3447.75 %M93PB stays at 00:22:3030
110Christian KNOX27:29JM15-1750.64 %M94Athletics EssendonPB stays at 00:21:0134Member of the parkrun 10 Club
111Serena WEHBE27:32SW18-1954.36 %F17PB stays at 00:26:0237Member of the parkrun 10 Club
112Michael James SLEE27:35VM60-6458.13 %M95Hobson's Bay Running ClubPB stays at 00:23:1968Member of the parkrun 50 Club
113Andrew MORISON27:36VM40-4450.60 %M96PB stays at 00:25:046Strava logo
114Jillian LIGHTFOOT27:37VW40-4455.40 %F18New PB!50Member of the parkrun 50 Club
115Zoe DANAHER27:38VW35-3954.76 %F19Red and Black RunningPB stays at 00:24:36182Member of the parkrun 100 Club
116Bryan TURNER27:39VM45-4951.30 %M97Red and Black RunningPB stays at 00:19:46109Member of the parkrun 100 Club
117Heather COLE27:40VW60-6470.12 %F20Red and Black RunningPB stays at 00:24:30164Member of the parkrun 100 Club
118Joanne MCDOWALL27:42VW40-4455.96 %F21Red and Black RunningPB stays at 00:26:54109Member of the parkrun 100 Club
119Adrian FITZGERALD27:44VM55-5955.41 %M98Red and Black RunningPB stays at 00:20:22145Member of the parkrun 100 ClubMember of the parkrun v25 ClubStrava logo
120Denis John VANCE27:45VM70-7463.54 %M99Victorian Road RunnersPB stays at 00:27:1237
121Chris WOOTTON27:50VM40-4450.18 %M100Red and Black RunningPB stays at 00:20:34137Member of the parkrun 100 ClubMember of the parkrun v25 ClubStrava logo
122Louis BRAVOS27:51SM30-3446.68 %M101PB stays at 00:23:1054Member of the parkrun 50 ClubStrava logo
123Linda ROSA27:55VW55-5967.58 %F22Red and Black RunningPB stays at 00:24:41128Member of the parkrun 100 Club
124Michelle ROBERTS28:05VW40-4454.78 %F23Red and Black RunningPB stays at 00:25:34126Member of the parkrun 100 Club
125Kerry O'SULLIVAN28:06VW40-4454.45 %F24Red and Black RunningPB stays at 00:25:5548
126Anne THOMAS28:13VW60-6468.75 %F25RUN DOWN UNDERPB stays at 00:25:30160Member of the parkrun 100 ClubMember of the parkrun v25 Club
127Stephen ARTHURSON28:21VM40-4448.85 %M102First Timer!1
128Andrea PESAVENTO28:53VW45-4956.09 %F26PB stays at 00:27:1517
129Michael BOURKE28:56VM50-5450.98 %M103First Timer!95Member of the parkrun 50 Club
130Phillipa DONELLY29:05VW55-5961.43 %F27PB stays at 00:27:50103Member of the parkrun 100 Club
131Matt WALS29:10VM40-4446.80 %M104PB stays at 00:26:163
132Moyang LI29:12SW30-3450.91 %F28PB stays at 00:27:448Strava logo
133Gavin KUNG29:13VM35-3946.38 %M105PB stays at 00:24:5663Member of the parkrun 50 Club
134Jamaka RADEBE29:15VM40-4447.35 %M106PB stays at 00:25:073
135Katie HYDER29:23VW40-4452.75 %F29PB stays at 00:27:573
136Mina WAHBA29:30SM30-3444.07 %M107New PB!2
137Imogen CRANE29:35SW20-2450.03 %F30First Timer!1
138Rachael ROACH29:37VW35-3951.32 %F31First Timer!35
139Mairead MC MAHON29:40VW55-5960.22 %F32PB stays at 00:27:0527
140Ella JUNIPER29:41JW1063.22 %F33PB stays at 00:28:2028Member of the parkrun 10 Club
141Martin JUNIPER29:42VM40-4446.30 %M108PB stays at 00:22:32119Member of the parkrun 100 Club
142Amy MCDONALD29:50SW30-3449.94 %F34PB stays at 00:27:4751Member of the parkrun 50 Club
143Aaron GORLITZ30:16SM25-2942.68 %M109PB stays at 00:24:466
144Pauleen FLETCHER30:22VW50-5456.59 %F35PB stays at 00:26:5431
145Guillermo NARSILIO30:23VM40-4445.26 %M110PB stays at 00:25:2786Member of the parkrun 50 Club
146Bridget PADGETT30:26VW55-5960.30 %F36PB stays at 00:27:30149Member of the parkrun 100 Club
147John GARCIA GUZMAN30:34VM45-4946.73 %M111New PB!2
148Donald MCLAREN30:36VM45-4947.82 %M112Athletics EssendonPB stays at 00:27:33106Member of the parkrun 100 Club
149Jean-Paul LECAUDE30:54VM50-5448.11 %M113PB stays at 00:26:3623
150Unknown
151Thai CAO31:11VM40-4443.77 %M115PB stays at 00:29:569
152Daniel PATERSON31:14VM40-4444.02 %M116RUN DOWN UNDERPB stays at 00:28:2634Strava logo
153Andrew CHARD31:19VM45-4946.73 %M117First Timer!1
154Belinda LINGHAM31:23VW60-6460.97 %F37PB stays at 00:28:2897Member of the parkrun 50 Club
155Jennifer HORTE31:38VW40-4448.37 %F38PB stays at 00:30:1430
156Simone KEMP31:45VW35-3947.66 %F39First Timer!1
157Sandra OH31:46VW35-3947.22 %F40PB stays at 00:27:015
158Rebecca GREGORY31:50VW35-3947.12 %F41PB stays at 00:24:5758Member of the parkrun 50 Club
159Ann COCKING31:53SW25-2946.42 %F42PB stays at 00:29:0426
160Unknown
161Ruby BEVERIDGE32:11JW15-1746.97 %F43Western AthleticsPB stays at 00:29:386
162Denise FRIZZO32:12VW35-3946.43 %F44PB stays at 00:29:377Strava logo
163Mark CHAPMAN32:16VM55-5949.28 %M119PB stays at 00:24:2947
164John DEAN32:21VM70-7457.60 %M120Victorian Masters AthleticsPB stays at 00:25:3567Member of the parkrun 50 Club
165Wyatt BELL32:33JM11-1445.67 %M121PB stays at 00:25:16107Member of the parkrun 100 Club
166Robyn BORG32:55VW55-5957.32 %F45First Timer!1
167Samantha ROZEK33:08VW35-3945.42 %F46PB stays at 00:30:4513
168Ray DOODY33:12VM40-4441.11 %M122PB stays at 00:26:1483Member of the parkrun 50 Club
169Frank FORTI33:12VM60-6449.15 %M123PB stays at 00:27:3320
170Justina GABRIEL33:13SW30-3444.56 %F47PB stays at 00:32:144
171Annie DONELLY33:22SW20-2444.36 %F48New PB!4
172Fiona LYNCH33:25SW25-2944.29 %F49PB stays at 00:31:054
173John SWAN33:35VM55-5946.95 %M124PB stays at 00:31:027
174Cheryl BEVERIDGE33:42VW50-5452.32 %F50PB stays at 00:32:448
175Lara RYAN33:46SW30-3443.83 %F51First Timer!7
176Tracey MORTON34:06VW55-5954.55 %F52PB stays at 00:29:3267Member of the parkrun 50 Club
177Tracey CRANE34:11VW50-5450.27 %F53First Timer!1
178Elliott KEELING-MAYER34:12JM11-1441.47 %M125First Timer!1
179Sarah WATSON34:13VW40-4445.98 %F54PB stays at 00:29:4313
180Bruce MCDOWALL34:14VM75-7956.33 %M126PB stays at 00:32:5888Member of the parkrun 50 Club
181Kristen HENNEKEN34:19SW25-2943.13 %F55New PB!3
182Catherine ORR34:35JW1056.48 %F56New PB!16Member of the parkrun 10 Club
183Julia ORR34:36VW40-4444.46 %F57PB stays at 00:26:4017Strava logo
184James MACNEIL34:43VM35-3937.97 %M127Orange Runners ClubFirst Timer!27
185Ian DUFF34:54VM65-6949.95 %M128PB stays at 00:32:2551Member of the parkrun 50 Club
186Nathan MARNELL35:09SM25-2936.70 %M129PB stays at 00:34:583
187Archie WILSON35:43JM11-1442.84 %M130First Timer!1
188Adeline TEH35:47SW25-2941.36 %F58RUN DOWN UNDERPB stays at 00:25:5454Member of the parkrun 50 ClubStrava logo
189Jacinta PSAILA35:53VW50-5447.89 %F59Red and Black RunningPB stays at 00:26:4595Member of the parkrun 50 Club
190Charlie WILSON35:58JW11-1444.39 %F60First Timer!1
191Waldo WILSON35:59VM45-4940.02 %M131PB stays at 00:29:133
192Jemima ERSKINE36:00JW1048.75 %F61New PB!2
193Zoe HEATH36:02SW30-3441.26 %F62Melbourne Midday MilersPB stays at 00:19:5083Member of the parkrun 50 ClubStrava logo
194Peter HEATH36:06VM65-6946.45 %M132PB stays at 00:26:0414
195Stefan BOCK36:08VM60-6445.99 %M133PB stays at 00:32:1133
196Imad NASSER36:17SM25-2935.55 %M134New PB!3
197Caz SMITH36:22VW45-4945.55 %F63PB stays at 00:35:206
198Samantha BYRNE36:45SW30-3440.27 %F64Red and Black RunningPB stays at 00:25:4465Member of the parkrun 50 Club
199Sarah KEATING36:46VW35-3941.16 %F65Red and Black RunningPB stays at 00:28:16137Member of the parkrun 100 ClubMember of the parkrun v25 ClubStrava logo
200Patricia VALENCIA37:16VW40-4441.59 %F66New PB!2
201Bilal AGHA38:00SM30-3434.12 %M135New PB!2
202Alex STEPHENSON38:10VM65-6944.37 %M136PB stays at 00:26:414
203Bill RISTEVSKI38:28VM50-5439.60 %M137Victorian Masters AthleticsPB stays at 00:28:0139
204Lynn GALLO38:50VW60-6451.42 %F67PB stays at 00:35:1419
205Hannah WILLIAMS38:55VW35-3939.06 %F68PB stays at 00:33:1925
206Lucille TANCREDI39:06JW1048.00 %F69First Timer!1
207Don TANCREDI39:06VM40-4435.17 %M138First Timer!1
208Clare Marie MARTIN39:24SW20-2437.56 %F70Victorian Road RunnersPB stays at 00:35:2335
209Aileen MARTIN39:25VW55-5946.55 %F71Victorian Road RunnersPB stays at 00:30:5679Member of the parkrun 50 Club
210Unknown
211Charlie POWELL40:04JM1046.67 %M140First Timer!1
212Brad COLE40:05VM60-6440.00 %M141PB stays at 00:35:5229
213Kelly POWELL40:06VW35-3937.74 %F72First Timer!1
214Gus WRETHMAN41:06VM55-5937.39 %M142PB stays at 00:39:026
215Tracey COPELAND41:16VW40-4437.56 %F73PB stays at 00:41:0013
216Unknown
217Unknown
218Melissa HARDIMAN43:53VW35-3934.30 %F74PB stays at 00:25:06175Member of the parkrun 100 Club
219Sandra TOMLINSON45:14VW70-7450.04 %F75PB stays at 00:41:557
220Sabina K45:14VW40-4434.78 %F76PB stays at 00:44:048
221Unknown
222Emily KEELING45:29VW35-3932.98 %F77PB stays at 00:33:1013
223Unknown
224Vivienne CRAIG47:27SW30-3431.26 %F78PB stays at 00:26:4626
225Isobel KEELING-MAYER47:49JW11-1434.05 %F79First Timer!1
226Kylie WILSON48:46SW30-3430.35 %F80First Timer!10
227Faatimah SCHROEDER49:21SW25-2929.99 %F81New PB!12
228Cora PENNINGTON55:51VW70-7439.87 %F82First Timer!1
229Therese SLEE55:51VW60-6434.26 %F83First Timer!1
230Merryn STEEL56:06VW55-5932.26 %F84PB stays at 00:31:0382Member of the parkrun 50 Club
231Laurie ELLIOTT56:07VM65-6930.74 %M147PB stays at 00:48:249
232Arvind SINGH59:44VM50-5424.89 %M148First Timer!1
233Connor COPELAND1:00:13JM1028.26 %M149First Timer!1
234Mark COPELAND1:00:15VM45-4923.71 %M150PB stays at 00:20:5643Strava logo
235Jennifer FORSTER1:00:21VW70-7437.50 %F85PB stays at 00:35:0613
236Lindy KERR1:00:24VW60-6433.06 %F86PB stays at 00:31:25100Member of the parkrun 100 Club

Thanks to the volunteers

We are very grateful to the volunteers who made this event happen:Peter ALLAN, Jill ALLAN, Brian ANDERSON, John COOPER, Tracey CUTHBERTSON, Gary CUTHBERTSON, Shane DRAPER, Michael HOUGH, Lindy KERR, Ian NEWEY

Why not get involved and volunteer?

What is this table?

This table shows the complete results for the specified week at this event. It is automatically shown when you navigate to the results page, but can also be reached by clicking on Latest Results, or by picking a specific week from the Event History table. If you bookmark the Latest Results page in your browser, the bookmark will always take you to the most up to date results table. If you bookmark a results page reached via the Event History table, the bookmark will then always take you to that specific week's results.

The columns

  • Pos - the runner's overall position in the run.
  • parkrunner - is the registered name of the athlete; clicking on the name takes you to that parkrunner's results page for this event.
  • Time - is the runner's recorded time - we record the overall time between the run director's start instruction and the runner crossing the finish line.
  • Age Cat - represents the age category of the runner on the day of the run; the first letter represents the major age categories (J)unior, (S)enior and (Veteran); the second letter represents gender (M)en and (W)omen; the remainder of the category represents a more specific age range. There are two further categories for wheel chair users; WWC and MWC represent Women and Men respectively. Clicking on the result category takes you to that age categories' historical record for this event.
  • Age Grade
  • - Gives an indication of how well the runner has done relative to their age and gender see the FAQ article for more information.
  • Gender - (M)ale or (F)emale
  • Gender Pos- Gender finish positions.
  • Club - Running club if registered.
  • Note - Note - Comments about PBs (Personal Bests).
  • Total Runs - Total number of runs across all parkruns, an indicator of membership of the various parkrun clubs, and their links with partner websites.

As with any of the results tables, the table can be sorted by any column by clicking on the column heading.